Time;durP1;ratioP1;P1;durP2;ratioP2;P2;SDS_P1;SDS_P2;PMS_P1;PMS_P2;Temp;Humidity;BMP_temperature;BMP_pressure;BME280_temperature;BME280_humidity;BME280_pressure;Samples;Min_cycle;Max_cycle;Signal;HPM_P1;HPM_P2
2024/03/26 00:00:31;;;;;;;8.82;2.70;;;4.30;99.90;;;;;;4974895;28;20050;-82
2024/03/26 00:02:59;;;;;;;5.47;2.10;;;4.30;99.90;;;;;;4970538;28;20027;-82
2024/03/26 00:05:25;;;;;;;9.75;3.15;;;4.30;99.90;;;;;;4973328;28;20058;-81
2024/03/26 00:07:50;;;;;;;11.45;3.00;;;4.20;99.90;;;;;;4987520;28;20158;-81
2024/03/26 00:10:16;;;;;;;5.57;2.28;;;4.30;99.90;;;;;;4973046;28;20037;-81
2024/03/26 00:12:41;;;;;;;9.60;2.88;;;4.20;99.90;;;;;;4973435;28;20026;-82
2024/03/26 00:15:07;;;;;;;11.75;3.22;;;4.30;99.90;;;;;;4956344;28;20037;-81
2024/03/26 00:17:32;;;;;;;6.60;3.05;;;4.20;99.90;;;;;;4988593;28;20042;-81
2024/03/26 00:19:58;;;;;;;4.93;2.47;;;4.10;99.90;;;;;;4988156;28;20042;-81
2024/03/26 00:22:25;;;;;;;6.03;2.65;;;4.20;99.90;;;;;;4986926;28;20041;-81
2024/03/26 00:24:50;;;;;;;8.80;2.80;;;4.30;99.90;;;;;;4967024;28;20033;-82
2024/03/26 00:27:16;;;;;;;7.97;2.72;;;4.30;99.90;;;;;;4972254;28;20026;-82
2024/03/26 00:29:41;;;;;;;7.57;2.67;;;4.30;99.90;;;;;;4992392;28;20022;-82
2024/03/26 00:32:07;;;;;;;4.93;2.45;;;4.20;99.90;;;;;;4988816;28;20041;-83
2024/03/26 00:34:32;;;;;;;11.90;2.80;;;4.10;99.90;;;;;;4950588;28;20054;-82
2024/03/26 00:36:58;;;;;;;8.32;2.78;;;4.10;99.90;;;;;;4968782;28;20097;-82
2024/03/26 00:39:24;;;;;;;7.60;3.25;;;4.10;99.90;;;;;;4990378;28;20026;-82
2024/03/26 00:41:49;;;;;;;7.32;3.05;;;4.10;99.90;;;;;;4969094;28;20496;-82
2024/03/26 00:44:15;;;;;;;7.85;2.38;;;4.10;99.90;;;;;;4956913;28;20034;-81
2024/03/26 00:46:40;;;;;;;7.88;2.78;;;4.20;99.90;;;;;;4988163;28;20054;-82
2024/03/26 00:49:06;;;;;;;7.38;2.78;;;4.20;99.90;;;;;;4986151;28;20035;-82
2024/03/26 00:51:31;;;;;;;6.18;2.72;;;4.30;99.90;;;;;;4970985;28;20045;-80
2024/03/26 00:53:57;;;;;;;11.60;2.80;;;4.30;99.90;;;;;;4959521;28;20114;-81
2024/03/26 00:56:22;;;;;;;6.60;2.35;;;4.30;99.90;;;;;;4958637;28;20032;-82
2024/03/26 00:58:48;;;;;;;5.55;2.58;;;4.30;99.90;;;;;;4968505;28;20078;-81
2024/03/26 01:01:13;;;;;;;9.98;2.75;;;4.20;99.90;;;;;;4955961;28;20383;-82
2024/03/26 01:03:39;;;;;;;9.65;3.17;;;4.30;99.90;;;;;;4954074;28;20042;-82
2024/03/26 01:06:04;;;;;;;6.68;2.65;;;4.20;99.90;;;;;;4972216;28;20053;-82
2024/03/26 01:08:30;;;;;;;6.88;2.47;;;4.40;99.90;;;;;;4973957;28;20031;-82
2024/03/26 01:10:56;;;;;;;4.57;2.45;;;4.40;99.90;;;;;;4987813;28;20038;-82
2024/03/26 01:13:22;;;;;;;8.13;2.35;;;4.40;99.90;;;;;;4970707;28;20042;-82
2024/03/26 01:15:47;;;;;;;9.43;3.10;;;4.40;99.90;;;;;;4984527;28;20030;-81
2024/03/26 01:18:13;;;;;;;5.05;2.50;;;4.40;99.90;;;;;;4955819;28;20094;-82
2024/03/26 01:20:41;;;;;;;3.65;1.88;;;4.40;99.90;;;;;;4971053;28;20055;-82
2024/03/26 01:23:07;;;;;;;8.73;2.70;;;4.30;99.90;;;;;;4985027;28;20488;-82
2024/03/26 01:25:32;;;;;;;9.88;3.53;;;4.30;99.90;;;;;;4985015;28;20034;-81
2024/03/26 01:27:58;;;;;;;8.95;2.88;;;4.20;99.90;;;;;;4961756;28;20145;-82
2024/03/26 01:30:24;;;;;;;8.93;2.60;;;4.30;99.90;;;;;;4953380;28;20050;-82
2024/03/26 01:32:50;;;;;;;7.13;2.63;;;4.30;99.90;;;;;;4973409;28;20062;-82
2024/03/26 01:35:15;;;;;;;9.43;3.03;;;4.20;99.90;;;;;;4985667;28;20042;-82
2024/03/26 01:37:41;;;;;;;5.97;2.30;;;4.20;99.90;;;;;;4983134;28;20603;-82
2024/03/26 01:40:09;;;;;;;8.07;2.97;;;4.10;99.90;;;;;;4972238;28;20577;-82
2024/03/26 01:42:35;;;;;;;5.93;2.65;;;4.10;99.90;;;;;;4962256;28;20034;-82
2024/03/26 01:45:01;;;;;;;7.72;2.70;;;4.10;99.90;;;;;;4969927;28;20032;-83
2024/03/26 01:47:26;;;;;;;6.35;2.40;;;4.00;99.90;;;;;;4968445;28;20427;-82
2024/03/26 01:49:53;;;;;;;5.15;2.88;;;4.00;99.90;;;;;;4985414;28;20030;-81
2024/03/26 01:52:19;;;;;;;9.20;2.92;;;4.00;99.90;;;;;;4952762;28;20388;-82
2024/03/26 01:54:44;;;;;;;4.05;2.50;;;3.90;99.90;;;;;;4966796;28;20027;-82
2024/03/26 01:57:10;;;;;;;6.55;2.72;;;3.90;99.90;;;;;;4984195;28;20038;-82
2024/03/26 01:59:36;;;;;;;7.05;2.58;;;3.90;99.90;;;;;;4981444;28;20030;-82
2024/03/26 02:02:01;;;;;;;10.07;2.30;;;3.80;99.90;;;;;;4967128;28;20472;-82
2024/03/26 02:04:28;;;;;;;7.28;2.65;;;3.80;99.90;;;;;;4982633;28;20022;-82
2024/03/26 02:06:54;;;;;;;5.30;2.50;;;3.80;99.90;;;;;;4986486;28;20563;-82
2024/03/26 02:09:19;;;;;;;7.40;2.97;;;3.80;99.90;;;;;;4985368;28;20072;-82
2024/03/26 02:11:45;;;;;;;7.30;2.40;;;3.70;99.90;;;;;;4970008;28;20034;-81
2024/03/26 02:14:10;;;;;;;9.82;2.40;;;3.80;99.90;;;;;;4983275;28;20591;-82
2024/03/26 02:16:36;;;;;;;9.25;2.40;;;3.80;99.90;;;;;;4985628;28;20509;-80
2024/03/26 02:19:02;;;;;;;6.85;2.83;;;3.90;99.90;;;;;;4985320;28;20031;-82
2024/03/26 02:21:27;;;;;;;5.63;2.67;;;3.90;99.90;;;;;;4972156;28;20034;-80
2024/03/26 02:23:53;;;;;;;6.88;2.42;;;3.80;99.90;;;;;;4955011;28;20055;-81
2024/03/26 02:26:18;;;;;;;6.57;2.13;;;3.90;99.90;;;;;;4987897;28;20129;-80
2024/03/26 02:28:44;;;;;;;6.68;2.63;;;3.90;99.90;;;;;;4971516;28;20112;-81
2024/03/26 02:31:09;;;;;;;5.80;2.03;;;4.00;99.90;;;;;;4984379;28;20041;-81
2024/03/26 02:33:35;;;;;;;10.13;2.42;;;4.00;99.90;;;;;;4958428;28;20488;-82
2024/03/26 02:36:01;;;;;;;4.13;2.10;;;4.00;99.90;;;;;;4986494;28;20054;-81
2024/03/26 02:38:26;;;;;;;8.63;2.28;;;4.00;99.90;;;;;;4960292;28;20105;-81
2024/03/26 02:40:52;;;;;;;6.85;2.50;;;4.00;99.90;;;;;;4973629;28;20030;-82
2024/03/26 02:43:19;;;;;;;10.60;2.90;;;3.90;99.90;;;;;;4975454;28;20031;-82
2024/03/26 02:45:45;;;;;;;6.53;1.92;;;3.80;99.90;;;;;;4975294;28;20061;-81
2024/03/26 02:48:10;;;;;;;3.88;2.20;;;4.00;99.90;;;;;;4977341;28;20038;-81
2024/03/26 02:50:36;;;;;;;4.22;1.90;;;3.90;99.90;;;;;;5002434;28;20167;-82
2024/03/26 02:53:01;;;;;;;4.63;2.30;;;3.90;99.90;;;;;;4951738;28;20046;-81
2024/03/26 02:55:27;;;;;;;3.65;1.77;;;4.10;99.90;;;;;;4983205;28;20026;-82
2024/03/26 02:57:52;;;;;;;5.10;2.30;;;4.00;99.90;;;;;;4969821;28;20026;-81
2024/03/26 03:00:18;;;;;;;6.97;2.30;;;4.10;99.90;;;;;;5009516;28;20033;-83
2024/03/26 03:02:44;;;;;;;4.75;2.25;;;4.00;99.90;;;;;;4993432;28;20480;-82
2024/03/26 03:05:10;;;;;;;4.80;2.60;;;4.00;99.90;;;;;;5012112;28;20076;-83
2024/03/26 03:07:35;;;;;;;9.45;2.60;;;4.10;99.90;;;;;;4991059;28;20105;-82
2024/03/26 03:10:01;;;;;;;9.73;2.20;;;4.00;99.90;;;;;;4989913;28;20029;-83
2024/03/26 03:12:26;;;;;;;4.60;1.80;;;4.10;99.90;;;;;;4995573;28;20026;-82
2024/03/26 03:14:52;;;;;;;5.68;2.30;;;4.20;99.90;;;;;;4979752;28;20038;-83
2024/03/26 03:17:17;;;;;;;5.82;1.98;;;4.20;99.90;;;;;;4990620;28;20034;-82
2024/03/26 03:19:43;;;;;;;3.67;1.92;;;4.10;99.90;;;;;;5006505;28;20443;-83
2024/03/26 03:22:08;;;;;;;3.00;1.98;;;4.10;99.90;;;;;;4987606;28;20049;-83
2024/03/26 03:24:34;;;;;;;5.47;1.95;;;4.20;99.90;;;;;;4971825;28;20113;-81
2024/03/26 03:26:59;;;;;;;8.18;2.13;;;4.20;99.90;;;;;;4959472;28;20033;-82
2024/03/26 03:29:25;;;;;;;6.38;2.08;;;4.20;99.90;;;;;;4989291;28;20045;-82
2024/03/26 03:31:50;;;;;;;6.72;2.35;;;4.20;99.90;;;;;;4971544;28;20069;-82
2024/03/26 03:34:16;;;;;;;6.78;2.33;;;4.20;99.90;;;;;;4971211;28;20396;-80
2024/03/26 03:36:41;;;;;;;5.05;1.98;;;4.20;99.90;;;;;;4989424;28;20535;-82
2024/03/26 03:39:08;;;;;;;3.63;1.73;;;4.10;99.90;;;;;;4985956;28;20078;-81
2024/03/26 03:41:33;;;;;;;5.22;1.85;;;4.20;99.90;;;;;;4962623;28;20404;-84
2024/03/26 03:43:59;;;;;;;6.75;2.17;;;4.30;99.90;;;;;;4970486;28;20027;-81
2024/03/26 03:46:24;;;;;;;3.10;2.15;;;4.20;99.90;;;;;;4970130;28;20042;-82
2024/03/26 03:48:50;;;;;;;8.27;2.42;;;4.10;99.90;;;;;;4985494;28;20037;-83
2024/03/26 03:51:15;;;;;;;4.97;2.03;;;4.20;99.90;;;;;;4970642;28;20046;-83
2024/03/26 03:53:41;;;;;;;4.45;1.83;;;4.20;99.90;;;;;;4991888;28;20114;-82
2024/03/26 03:56:07;;;;;;;3.10;2.00;;;4.20;99.90;;;;;;4970647;28;20045;-82
2024/03/26 03:58:33;;;;;;;6.60;2.05;;;4.20;99.90;;;;;;4986667;28;20109;-82
2024/03/26 04:00:58;;;;;;;5.15;2.45;;;4.20;99.90;;;;;;4968572;28;20054;-81
2024/03/26 04:03:24;;;;;;;8.05;2.30;;;4.20;99.90;;;;;;4986083;28;20117;-81
2024/03/26 04:05:49;;;;;;;15.40;2.63;;;4.10;99.90;;;;;;4970727;28;20583;-82
2024/03/26 04:08:15;;;;;;;2.10;1.73;;;4.20;99.90;;;;;;4973222;28;20113;-81
2024/03/26 04:10:41;;;;;;;10.98;2.28;;;4.10;99.90;;;;;;4971608;28;20104;-82
2024/03/26 04:13:06;;;;;;;5.35;2.08;;;4.10;99.90;;;;;;4974720;28;20153;-82
2024/03/26 04:15:32;;;;;;;4.20;2.13;;;4.10;99.90;;;;;;4972613;28;20034;-82
2024/03/26 04:17:57;;;;;;;4.90;2.25;;;4.20;99.90;;;;;;4988282;28;20057;-81
2024/03/26 04:20:23;;;;;;;6.93;2.65;;;4.20;99.90;;;;;;4978756;28;20030;-83
2024/03/26 04:22:48;;;;;;;7.18;2.85;;;4.30;99.90;;;;;;4970436;28;20030;-82
2024/03/26 04:25:15;;;;;;;4.97;2.03;;;4.20;99.90;;;;;;4984645;28;20558;-82
2024/03/26 04:27:41;;;;;;;6.72;2.03;;;4.20;99.90;;;;;;4988871;28;20476;-82
2024/03/26 04:30:08;;;;;;;5.60;2.45;;;4.30;99.90;;;;;;4989214;28;20049;-82
2024/03/26 04:32:34;;;;;;;6.90;2.08;;;4.40;99.90;;;;;;4982854;28;20030;-82
2024/03/26 04:35:00;;;;;;;5.38;2.42;;;4.20;99.90;;;;;;4970137;28;20101;-82
2024/03/26 04:37:25;;;;;;;3.90;1.90;;;4.10;99.90;;;;;;4985223;28;20030;-82
2024/03/26 04:39:51;;;;;;;7.30;2.67;;;4.10;99.90;;;;;;4964234;28;20440;-81
2024/03/26 04:42:16;;;;;;;4.25;2.10;;;4.20;99.90;;;;;;4971038;28;20031;-82
2024/03/26 04:44:42;;;;;;;5.30;2.17;;;4.30;99.90;;;;;;4989586;28;20049;-83
2024/03/26 04:47:07;;;;;;;11.77;2.85;;;4.30;99.90;;;;;;4983052;28;20066;-83
2024/03/26 04:49:33;;;;;;;9.43;2.28;;;4.20;99.90;;;;;;4954771;28;20121;-82
2024/03/26 04:51:59;;;;;;;5.38;2.30;;;4.20;99.90;;;;;;4970214;28;20352;-82
2024/03/26 04:54:25;;;;;;;6.70;2.28;;;4.10;99.90;;;;;;4973306;28;20048;-82
2024/03/26 04:56:50;;;;;;;4.65;2.08;;;4.00;99.90;;;;;;4976444;28;20715;-82
2024/03/26 04:59:16;;;;;;;6.70;2.35;;;4.00;99.90;;;;;;4974128;28;20507;-81
2024/03/26 05:01:41;;;;;;;3.65;2.15;;;4.00;99.90;;;;;;4986864;28;20060;-81
2024/03/26 05:04:07;;;;;;;3.47;2.00;;;3.90;99.90;;;;;;4972021;28;20400;-82
2024/03/26 05:06:32;;;;;;;5.35;1.80;;;3.90;99.90;;;;;;4986208;28;20046;-82
2024/03/26 05:08:58;;;;;;;7.05;2.47;;;4.00;99.90;;;;;;4973385;28;20036;-81
2024/03/26 05:11:23;;;;;;;4.43;2.00;;;4.00;99.90;;;;;;4957554;28;20034;-81
2024/03/26 05:13:49;;;;;;;4.40;2.10;;;3.90;99.90;;;;;;4967047;28;20153;-81
2024/03/26 05:16:15;;;;;;;8.95;2.30;;;3.90;99.90;;;;;;4990136;28;20062;-81
2024/03/26 05:18:40;;;;;;;6.93;1.92;;;3.90;99.90;;;;;;4956180;28;20034;-80
2024/03/26 05:21:06;;;;;;;5.35;2.38;;;4.00;99.90;;;;;;4971632;28;20469;-81
2024/03/26 05:23:31;;;;;;;4.82;2.40;;;4.00;99.90;;;;;;4982367;28;20118;-82
2024/03/26 05:25:57;;;;;;;4.47;1.95;;;4.00;99.90;;;;;;4989688;28;20066;-82
2024/03/26 05:28:22;;;;;;;5.95;1.95;;;4.10;99.90;;;;;;4988130;28;20054;-82
2024/03/26 05:30:48;;;;;;;6.40;2.30;;;4.00;99.90;;;;;;4954885;28;20122;-83
2024/03/26 05:33:13;;;;;;;4.60;1.98;;;4.00;99.90;;;;;;4973475;28;20030;-82
2024/03/26 05:35:42;;;;;;;4.57;2.33;;;4.00;99.90;;;;;;4973055;28;20038;-82
2024/03/26 05:38:07;;;;;;;2.88;1.92;;;4.00;99.90;;;;;;4983783;28;20038;-82
2024/03/26 05:40:33;;;;;;;4.38;2.08;;;3.90;99.90;;;;;;4973000;28;20034;-83
2024/03/26 05:42:59;;;;;;;4.40;1.70;;;3.90;99.90;;;;;;4971166;28;20037;-82
2024/03/26 05:45:24;;;;;;;4.97;1.85;;;3.90;99.90;;;;;;4983617;28;20132;-83
2024/03/26 05:47:50;;;;;;;7.15;2.15;;;4.00;99.90;;;;;;4969582;28;20038;-82
2024/03/26 05:50:15;;;;;;;6.97;2.30;;;3.90;99.90;;;;;;4970229;28;20058;-82
2024/03/26 05:52:41;;;;;;;5.03;2.00;;;4.00;99.90;;;;;;4985434;28;20046;-82
2024/03/26 05:55:07;;;;;;;4.03;1.73;;;4.00;99.90;;;;;;4969796;28;20030;-83
2024/03/26 05:57:32;;;;;;;2.92;1.80;;;4.00;99.90;;;;;;4985900;28;20613;-82
2024/03/26 05:59:58;;;;;;;4.45;2.10;;;4.10;99.90;;;;;;4984363;28;20496;-82
2024/03/26 06:02:23;;;;;;;4.40;1.67;;;4.10;99.90;;;;;;4971004;28;20506;-84
2024/03/26 06:04:49;;;;;;;5.38;1.98;;;4.10;99.90;;;;;;4987825;28;20384;-82
2024/03/26 06:07:14;;;;;;;5.05;2.00;;;4.20;99.90;;;;;;4969255;28;20050;-80
2024/03/26 06:09:40;;;;;;;2.75;1.75;;;4.30;99.90;;;;;;4985825;28;20031;-82
2024/03/26 06:12:05;;;;;;;2.17;1.70;;;4.30;99.90;;;;;;4969714;28;20053;-84
2024/03/26 06:14:31;;;;;;;4.40;2.25;;;4.30;99.90;;;;;;4985169;28;20026;-80
2024/03/26 06:16:56;;;;;;;2.67;1.80;;;4.30;99.90;;;;;;4982557;28;20034;-82
2024/03/26 06:19:22;;;;;;;3.08;1.88;;;4.40;99.90;;;;;;4957046;28;20062;-82
2024/03/26 06:21:47;;;;;;;4.03;2.05;;;4.50;99.90;;;;;;4967569;28;20059;-82
2024/03/26 06:24:13;;;;;;;4.85;2.15;;;4.60;99.90;;;;;;4981255;28;20134;-82
2024/03/26 06:26:38;;;;;;;2.92;1.75;;;4.70;99.90;;;;;;4987731;28;20417;-82
2024/03/26 06:29:04;;;;;;;4.63;2.30;;;4.70;99.90;;;;;;4969523;28;20037;-83
2024/03/26 06:31:29;;;;;;;6.25;1.98;;;4.70;99.90;;;;;;4986087;28;20022;-83
2024/03/26 06:33:55;;;;;;;4.07;2.00;;;4.80;99.90;;;;;;4954232;28;20379;-81
2024/03/26 06:36:21;;;;;;;5.70;1.60;;;4.90;99.90;;;;;;4969773;28;20038;-82
2024/03/26 06:38:46;;;;;;;3.65;1.92;;;4.90;99.90;;;;;;4983460;28;20122;-84
2024/03/26 06:41:12;;;;;;;6.18;2.40;;;5.00;99.90;;;;;;4970610;28;20096;-84
2024/03/26 06:43:37;;;;;;;5.18;2.10;;;5.10;99.90;;;;;;4968606;28;20454;-84
2024/03/26 06:46:04;;;;;;;5.70;2.45;;;5.10;99.90;;;;;;4972542;28;20070;-82
2024/03/26 06:48:29;;;;;;;6.25;2.40;;;5.20;99.90;;;;;;4972528;28;20030;-83
2024/03/26 06:50:55;;;;;;;5.80;2.22;;;5.30;99.90;;;;;;4970566;28;20042;-82
2024/03/26 06:53:20;;;;;;;4.20;2.25;;;5.30;99.90;;;;;;4954492;28;20023;-82
2024/03/26 06:55:46;;;;;;;5.18;1.98;;;5.40;99.90;;;;;;4981136;28;20042;-81
2024/03/26 06:58:11;;;;;;;7.43;2.42;;;5.50;99.90;;;;;;4975570;28;20030;-83
2024/03/26 07:00:37;;;;;;;3.35;1.98;;;5.60;99.90;;;;;;4970295;28;20069;-81
2024/03/26 07:03:02;;;;;;;5.95;1.63;;;5.70;99.90;;;;;;4972257;28;20388;-82
2024/03/26 07:05:28;;;;;;;6.85;2.10;;;5.70;99.90;;;;;;4953158;28;20045;-83
2024/03/26 07:07:54;;;;;;;16.27;2.85;;;6.00;99.90;;;;;;4954077;28;20731;-83
2024/03/26 07:10:20;;;;;;;6.03;1.80;;;6.00;99.90;;;;;;4976707;28;20027;-82
2024/03/26 07:12:46;;;;;;;6.70;2.38;;;6.20;99.90;;;;;;4974840;28;20045;-82
2024/03/26 07:15:12;;;;;;;2.70;1.33;;;6.30;99.90;;;;;;4969525;28;20504;-83
2024/03/26 07:17:40;;;;;;;3.78;2.00;;;6.40;99.90;;;;;;4990819;28;20120;-82
2024/03/26 07:20:09;;;;;;;3.97;1.77;;;6.50;99.90;;;;;;4988289;28;20065;-82
2024/03/26 07:22:37;;;;;;;1.92;1.58;;;6.60;99.90;;;;;;4955795;28;20039;-82
2024/03/26 07:25:03;;;;;;;1.83;1.38;;;6.60;99.90;;;;;;4966930;28;20030;-80
2024/03/26 07:27:29;;;;;;;4.05;1.25;;;6.80;99.90;;;;;;4976737;28;20396;-82
2024/03/26 07:29:54;;;;;;;2.15;1.25;;;6.90;99.90;;;;;;4974765;28;20037;-82
2024/03/26 07:32:20;;;;;;;2.53;1.45;;;7.00;99.90;;;;;;4975171;28;20050;-82
2024/03/26 07:34:46;;;;;;;4.03;1.80;;;7.10;99.90;;;;;;4972114;28;20026;-82
2024/03/26 07:37:11;;;;;;;1.83;1.15;;;7.20;99.90;;;;;;4991463;28;20161;-82
2024/03/26 07:39:37;;;;;;;2.63;1.27;;;7.30;99.90;;;;;;4977311;28;20065;-83
2024/03/26 07:42:02;;;;;;;6.60;1.63;;;7.30;99.90;;;;;;4991496;28;20130;-83
2024/03/26 07:44:29;;;;;;;2.35;1.42;;;7.40;99.90;;;;;;4969963;28;20599;-83
2024/03/26 07:46:54;;;;;;;3.67;1.55;;;7.40;99.90;;;;;;4986487;28;20647;-82
2024/03/26 07:49:20;;;;;;;2.83;1.85;;;7.60;99.90;;;;;;4988659;28;20125;-83
2024/03/26 07:51:46;;;;;;;5.57;1.40;;;7.70;99.90;;;;;;4972787;28;20697;-82
2024/03/26 07:54:11;;;;;;;4.80;2.17;;;7.80;99.90;;;;;;4969349;28;20041;-82
2024/03/26 07:56:37;;;;;;;2.50;1.38;;;7.90;99.90;;;;;;4989246;28;20027;-81
2024/03/26 07:59:03;;;;;;;2.13;1.40;;;7.90;99.90;;;;;;4991519;28;20091;-79
2024/03/26 08:01:29;;;;;;;4.47;1.30;;;8.00;99.90;;;;;;4972564;28;20096;-82
2024/03/26 08:03:55;;;;;;;2.28;1.05;;;8.10;99.90;;;;;;4974615;28;20495;-82
2024/03/26 08:06:20;;;;;;;2.42;1.27;;;8.10;99.90;;;;;;4985989;28;20041;-84
2024/03/26 08:08:49;;;;;;;5.90;1.17;;;8.20;99.90;;;;;;4988139;28;20026;-84
2024/03/26 08:11:14;;;;;;;4.22;1.45;;;8.30;99.90;;;;;;4989818;28;20500;-81
2024/03/26 08:13:40;;;;;;;1.98;1.20;;;8.30;99.90;;;;;;4972611;28;20045;-82
2024/03/26 08:16:06;;;;;;;5.13;1.77;;;8.50;99.90;;;;;;4989652;28;20049;-82
2024/03/26 08:18:32;;;;;;;3.28;1.95;;;8.60;99.90;;;;;;4997914;28;20543;-85
2024/03/26 08:20:59;;;;;;;2.40;1.27;;;8.70;99.90;;;;;;4981735;28;20049;-83
2024/03/26 08:23:25;;;;;;;2.70;1.15;;;8.80;99.90;;;;;;4971912;28;20038;-84
2024/03/26 08:25:50;;;;;;;2.85;1.38;;;8.80;99.90;;;;;;4971966;28;20045;-83
2024/03/26 08:28:16;;;;;;;4.43;1.38;;;9.00;99.90;;;;;;4972127;28;20040;-83
2024/03/26 08:30:42;;;;;;;2.97;1.15;;;9.10;99.90;;;;;;4972244;28;20412;-83
2024/03/26 08:33:07;;;;;;;2.60;1.45;;;9.30;99.90;;;;;;4973842;28;20046;-82
2024/03/26 08:35:39;;;;;;;3.92;1.60;;;9.30;99.90;;;;;;4972445;28;20953;-84
2024/03/26 08:38:05;;;;;;;3.75;1.17;;;9.60;99.90;;;;;;4971694;28;20088;-85
2024/03/26 08:40:30;;;;;;;5.63;1.17;;;9.60;99.90;;;;;;4988509;28;20129;-84
2024/03/26 08:42:56;;;;;;;2.30;1.15;;;9.90;99.90;;;;;;4964099;28;20048;-83
2024/03/26 08:45:23;;;;;;;1.88;1.02;;;9.80;99.90;;;;;;4971431;28;20038;-82
2024/03/26 08:47:48;;;;;;;3.70;1.02;;;10.10;99.90;;;;;;4978509;28;20034;-83
2024/03/26 08:50:14;;;;;;;4.70;1.67;;;10.10;99.90;;;;;;4986362;28;20049;-82
2024/03/26 08:52:39;;;;;;;2.38;1.13;;;10.20;99.90;;;;;;4971268;28;20105;-83
2024/03/26 08:55:05;;;;;;;5.30;1.30;;;10.30;99.90;;;;;;4985482;28;20019;-82
2024/03/26 08:57:30;;;;;;;2.05;0.98;;;10.40;99.90;;;;;;4985935;28;20416;-83
2024/03/26 08:59:56;;;;;;;2.38;1.10;;;10.60;99.90;;;;;;4981236;28;20019;-83
2024/03/26 09:02:23;;;;;;;2.03;1.08;;;10.80;99.90;;;;;;4986119;28;20030;-82
2024/03/26 09:04:50;;;;;;;1.90;1.15;;;10.90;99.90;;;;;;4970111;28;20490;-82
2024/03/26 09:07:16;;;;;;;4.80;1.23;;;11.20;99.90;;;;;;4981833;28;20080;-84
2024/03/26 09:09:42;;;;;;;4.95;1.02;;;11.30;99.90;;;;;;4973003;28;20034;-82
2024/03/26 09:12:09;;;;;;;2.42;0.80;;;11.20;99.90;;;;;;4991784;28;20042;-82
2024/03/26 09:14:35;;;;;;;4.53;1.05;;;11.40;99.90;;;;;;4981736;28;20165;-83
2024/03/26 09:17:01;;;;;;;2.08;0.98;;;11.40;99.90;;;;;;4986358;28;20122;-82
2024/03/26 09:19:28;;;;;;;2.10;1.15;;;11.30;98.90;;;;;;4967752;28;20540;-82
2024/03/26 09:21:54;;;;;;;2.58;1.17;;;11.50;98.90;;;;;;4986967;28;20121;-82
2024/03/26 09:24:21;;;;;;;1.60;1.00;;;11.70;99.10;;;;;;4968274;28;20128;-81
2024/03/26 09:26:46;;;;;;;3.17;1.27;;;11.70;98.50;;;;;;4955207;28;20491;-83
2024/03/26 09:29:12;;;;;;;9.27;1.38;;;11.70;99.00;;;;;;4969988;28;20069;-83
2024/03/26 09:31:37;;;;;;;2.05;1.20;;;11.90;99.90;;;;;;4953034;28;20830;-83
2024/03/26 09:34:04;;;;;;;3.47;1.10;;;12.40;99.90;;;;;;4970131;28;20033;-82
2024/03/26 09:36:30;;;;;;;1.38;1.00;;;12.50;99.90;;;;;;4968612;28;20391;-83
2024/03/26 09:38:55;;;;;;;3.60;1.52;;;12.30;99.90;;;;;;4967842;28;20030;-79
2024/03/26 09:41:22;;;;;;;3.78;1.30;;;12.70;99.90;;;;;;4948571;28;20026;-77
2024/03/26 09:43:49;;;;;;;3.30;1.10;;;13.10;99.90;;;;;;4985613;28;20730;-77
2024/03/26 09:46:15;;;;;;;1.73;1.13;;;12.40;97.60;;;;;;4964939;28;20046;-78
2024/03/26 09:48:43;;;;;;;8.65;1.20;;;12.50;99.50;;;;;;4970344;28;20606;-78
2024/03/26 09:51:08;;;;;;;3.28;1.00;;;12.50;98.40;;;;;;4986949;28;20042;-76
2024/03/26 09:53:34;;;;;;;1.75;0.85;;;12.40;99.90;;;;;;4967863;28;20166;-79
2024/03/26 09:55:59;;;;;;;2.55;1.30;;;12.70;99.90;;;;;;4969046;28;20492;-79
2024/03/26 09:58:25;;;;;;;3.42;1.08;;;12.50;98.00;;;;;;4985709;28;20041;-75
2024/03/26 10:00:51;;;;;;;3.00;1.20;;;12.40;98.50;;;;;;4952908;28;20060;-78
2024/03/26 10:03:20;;;;;;;3.17;1.00;;;12.30;98.10;;;;;;4953397;28;20160;-79
2024/03/26 10:05:46;;;;;;;2.33;1.10;;;12.40;97.90;;;;;;4960203;28;20042;-79
2024/03/26 10:08:11;;;;;;;2.95;1.15;;;12.40;97.40;;;;;;4969188;28;20034;-77
2024/03/26 10:10:44;;;;;;;3.42;1.30;;;12.40;97.80;;;;;;4984064;28;20043;-76
2024/03/26 10:13:11;;;;;;;2.55;1.10;;;12.50;97.20;;;;;;4966676;28;20073;-76
2024/03/26 10:15:39;;;;;;;6.18;1.08;;;12.60;96.90;;;;;;4984116;28;20030;-77
2024/03/26 10:18:08;;;;;;;4.00;1.38;;;12.50;98.00;;;;;;4994732;28;20038;-78
2024/03/26 10:20:34;;;;;;;1.88;0.88;;;12.90;98.40;;;;;;4968638;28;20042;-78
2024/03/26 10:23:06;;;;;;;4.13;1.30;;;12.90;97.30;;;;;;4972969;28;20107;-76
2024/03/26 10:25:32;;;;;;;1.92;1.00;;;13.10;99.80;;;;;;4969221;28;20470;-79
2024/03/26 10:28:00;;;;;;;1.42;0.88;;;13.20;96.60;;;;;;4968109;28;20042;-78
2024/03/26 10:30:25;;;;;;;5.80;1.25;;;13.20;97.40;;;;;;4969063;28;20081;-79
2024/03/26 10:32:54;;;;;;;7.03;1.77;;;13.10;97.30;;;;;;4954950;28;20035;-78
2024/03/26 10:35:21;;;;;;;4.18;1.20;;;13.30;98.50;;;;;;4951087;28;20061;-78
2024/03/26 10:37:50;;;;;;;2.15;1.10;;;13.30;99.90;;;;;;4967604;28;20614;-79
2024/03/26 10:40:27;;;;;;;2.60;0.90;;;13.60;97.00;;;;;;4985936;28;20030;-78
2024/03/26 10:42:54;;;;;;;3.10;1.20;;;13.50;98.00;;;;;;4983346;28;20034;-79
2024/03/26 10:45:20;;;;;;;3.42;1.00;;;13.40;97.20;;;;;;4984000;28;20025;-77
2024/03/26 10:47:46;;;;;;;2.92;1.23;;;14.00;99.90;;;;;;4990744;28;20046;-78
2024/03/26 10:50:13;;;;;;;1.50;0.90;;;13.70;97.60;;;;;;4989302;28;20033;-79
2024/03/26 10:52:39;;;;;;;4.93;1.30;;;13.70;98.90;;;;;;4991195;28;20043;-77
2024/03/26 10:55:05;;;;;;;5.13;1.60;;;13.80;97.40;;;;;;4961453;28;20164;-77
2024/03/26 10:57:30;;;;;;;2.17;1.48;;;13.60;99.90;;;;;;4973751;28;20117;-78
2024/03/26 10:59:56;;;;;;;3.28;0.93;;;14.00;99.90;;;;;;4959303;28;20056;-78
2024/03/26 11:02:22;;;;;;;4.55;1.45;;;13.90;97.90;;;;;;4975984;28;20055;-81
2024/03/26 11:04:47;;;;;;;3.97;1.23;;;13.80;97.70;;;;;;4988410;28;20038;-81
2024/03/26 11:07:13;;;;;;;2.45;1.50;;;14.00;96.70;;;;;;4958775;28;20415;-82
2024/03/26 11:09:39;;;;;;;3.20;0.85;;;14.30;99.00;;;;;;4989944;28;20085;-81
2024/03/26 11:12:15;;;;;;;2.13;1.00;;;14.50;98.60;;;;;;4985430;28;20103;-81
2024/03/26 11:14:41;;;;;;;1.13;0.75;;;14.20;96.40;;;;;;4967357;28;20969;-81
2024/03/26 11:17:11;;;;;;;1.17;0.63;;;14.00;96.40;;;;;;4974340;28;20531;-81
2024/03/26 11:19:40;;;;;;;2.92;1.25;;;13.70;96.30;;;;;;4974869;28;20030;-81
2024/03/26 11:22:11;;;;;;;4.80;1.10;;;13.90;97.70;;;;;;4967015;28;20511;-80
2024/03/26 11:24:37;;;;;;;3.58;1.48;;;14.40;97.30;;;;;;4995508;28;20736;-80
2024/03/26 11:27:04;;;;;;;4.55;1.17;;;15.10;99.90;;;;;;4976540;28;20049;-79
2024/03/26 11:29:30;;;;;;;3.45;1.08;;;15.50;99.90;;;;;;4994322;28;20042;-79
2024/03/26 11:31:55;;;;;;;4.78;1.00;;;15.20;98.10;;;;;;4989811;28;20170;-79
2024/03/26 11:34:22;;;;;;;2.53;1.20;;;15.20;96.40;;;;;;5000186;28;20038;-80
2024/03/26 11:36:48;;;;;;;2.85;1.33;;;15.20;96.50;;;;;;4991426;28;20111;-80
2024/03/26 11:39:15;;;;;;;3.08;1.50;;;15.10;96.40;;;;;;4997404;28;20519;-79
2024/03/26 11:41:40;;;;;;;1.92;1.00;;;15.60;99.80;;;;;;5008427;28;20153;-79
2024/03/26 11:44:06;;;;;;;3.50;1.10;;;15.90;99.90;;;;;;4972112;28;20082;-82
2024/03/26 11:46:31;;;;;;;3.17;1.48;;;16.20;99.50;;;;;;4983577;28;20115;-80
2024/03/26 11:48:57;;;;;;;2.13;1.40;;;16.00;99.90;;;;;;5010654;28;20033;-80
2024/03/26 11:51:23;;;;;;;2.28;1.48;;;15.70;96.20;;;;;;5008319;28;20456;-80
2024/03/26 11:53:49;;;;;;;3.83;1.30;;;16.20;99.90;;;;;;4997116;28;20117;-80
2024/03/26 11:56:15;;;;;;;4.85;1.30;;;16.10;96.50;;;;;;5005546;28;20435;-80
2024/03/26 11:58:40;;;;;;;4.85;1.50;;;16.40;97.50;;;;;;5003433;28;20062;-80
2024/03/26 12:01:08;;;;;;;3.38;1.30;;;16.30;99.90;;;;;;4985398;28;20060;-80
2024/03/26 12:03:33;;;;;;;2.92;1.00;;;15.90;96.30;;;;;;5004628;28;20166;-80
2024/03/26 12:05:59;;;;;;;6.90;1.40;;;15.70;94.80;;;;;;4989703;28;20497;-80
2024/03/26 12:08:25;;;;;;;2.90;1.10;;;15.80;95.20;;;;;;4987898;28;20113;-81
2024/03/26 12:10:50;;;;;;;2.42;1.63;;;16.90;99.90;;;;;;4970337;28;20034;-80
2024/03/26 12:13:16;;;;;;;4.20;1.50;;;16.30;96.70;;;;;;4984126;28;20049;-80
2024/03/26 12:15:45;;;;;;;8.40;1.35;;;16.00;99.90;;;;;;4953785;28;20045;-80
2024/03/26 12:18:11;;;;;;;1.80;1.08;;;16.20;95.70;;;;;;4954835;28;21989;-81
2024/03/26 12:20:36;;;;;;;3.42;1.23;;;16.10;95.80;;;;;;4972280;28;20034;-81
2024/03/26 12:23:02;;;;;;;3.40;1.08;;;16.60;99.90;;;;;;4984156;28;20528;-80
2024/03/26 12:25:36;;;;;;;3.33;1.63;;;16.30;95.10;;;;;;4972563;28;20113;-81
2024/03/26 12:28:02;;;;;;;4.50;1.33;;;15.80;95.50;;;;;;4989257;28;20073;-81
2024/03/26 12:30:33;;;;;;;6.50;1.30;;;16.10;94.50;;;;;;4988470;28;20026;-80
2024/03/26 12:32:59;;;;;;;4.28;1.10;;;16.00;95.10;;;;;;4973019;28;20034;-81
2024/03/26 12:35:25;;;;;;;1.33;0.90;;;15.80;95.80;;;;;;4970708;28;20027;-81
2024/03/26 12:37:50;;;;;;;5.57;1.08;;;16.20;94.70;;;;;;4970428;28;20084;-81
2024/03/26 12:40:16;;;;;;;7.68;1.30;;;16.20;95.20;;;;;;4974474;28;20041;-81
2024/03/26 12:42:42;;;;;;;2.75;1.20;;;16.20;94.40;;;;;;4968253;28;20034;-81
2024/03/26 12:45:07;;;;;;;4.03;1.13;;;16.30;94.60;;;;;;4971508;28;20437;-81